Time;durP1;ratioP1;P1;durP2;ratioP2;P2;SDS_P1;SDS_P2;PMS_P1;PMS_P2;Temp;Humidity;BMP_temperature;BMP_pressure;BME280_temperature;BME280_humidity;BME280_pressure;Samples;Min_cycle;Max_cycle;Signal;HPM_P1;HPM_P2
2022/06/08 00:00:00;;;;;;;86.90;50.06;;;;;;;14.68;100.00;100841.03;173295;28;1255;-68
2022/06/08 00:00:16;;;;;;;86.57;49.91;;;;;;;14.68;100.00;100847.09;171942;28;1460;-68
2022/06/08 00:00:25;;;;;;;87.18;49.97;;;;;;;14.68;100.00;100844.47;171999;28;1275;-68
2022/06/08 00:00:30;;;;;;;86.62;50.07;;;;;;;14.67;100.00;100845.44;172069;28;992;-68
2022/06/08 00:00:37;;;;;;;88.07;50.35;;;;;;;14.66;100.00;100843.75;172029;28;868;-68
2022/06/08 00:00:47;;;;;;;89.32;50.92;;;;;;;14.67;100.00;100850.69;172005;28;971;-68
2022/06/08 00:00:58;;;;;;;88.91;51.26;;;;;;;14.67;100.00;100847.19;172000;28;1272;-68
2022/06/08 00:01:05;;;;;;;88.36;51.36;;;;;;;14.66;100.00;100846.38;171996;28;1192;-68
2022/06/08 00:01:16;;;;;;;88.52;50.96;;;;;;;14.67;100.00;100848.06;171988;28;1354;-68
2022/06/08 00:01:22;;;;;;;87.93;50.77;;;;;;;14.66;100.00;100849.00;172298;28;1543;-68
2022/06/08 00:01:30;;;;;;;88.93;51.08;;;;;;;14.61;100.00;100844.97;172738;28;891;-68
2022/06/08 00:01:37;;;;;;;89.68;51.23;;;;;;;14.62;100.00;100841.38;172699;28;1006;-68
2022/06/08 00:01:43;;;;;;;88.46;50.94;;;;;;;14.59;100.00;100842.41;172694;28;923;-68
2022/06/08 00:01:51;;;;;;;89.00;50.80;;;;;;;14.60;100.00;100844.09;172682;28;868;-68
2022/06/08 00:01:57;;;;;;;89.60;50.62;;;;;;;14.59;100.00;100850.31;172681;28;991;-68
2022/06/08 00:02:04;;;;;;;89.43;50.60;;;;;;;14.58;100.00;100846.00;172682;28;1026;-68
2022/06/08 00:02:11;;;;;;;90.92;50.98;;;;;;;14.56;100.00;100847.84;172685;28;1145;-68
2022/06/08 00:02:17;;;;;;;92.78;51.85;;;;;;;14.58;100.00;100851.25;171930;28;1274;-68
2022/06/08 00:02:26;;;;;;;93.10;52.50;;;;;;;14.59;100.00;100844.19;172039;28;1234;-68
2022/06/08 00:02:33;;;;;;;92.70;52.90;;;;;;;14.58;100.00;100853.88;172032;28;971;-68
2022/06/08 00:02:42;;;;;;;92.76;53.24;;;;;;;14.58;100.00;100851.25;171993;28;925;-68
2022/06/08 00:02:55;;;;;;;93.59;53.20;;;;;;;14.59;100.00;100842.41;171985;28;1177;-68
2022/06/08 00:03:15;;;;;;;95.64;52.75;;;;;;;14.59;100.00;100842.41;172042;28;1296;-68
2022/06/08 00:03:28;;;;;;;95.56;52.84;;;;;;;14.61;100.00;100844.97;172324;28;1271;-68
2022/06/08 00:03:47;;;;;;;93.78;52.72;;;;;;;14.61;100.00;100840.53;172658;28;1269;-68
2022/06/08 00:03:58;;;;;;;93.43;52.46;;;;;;;14.61;100.00;100840.53;172679;28;1265;-68
2022/06/08 00:04:09;;;;;;;91.74;52.33;;;;;;;14.62;100.00;100844.00;172655;28;1272;-68
2022/06/08 00:04:16;;;;;;;89.11;52.02;;;;;;;14.61;100.00;100845.78;172650;28;1266;-68
2022/06/08 00:04:24;;;;;;;88.34;52.02;;;;;;;14.61;100.00;100845.78;172757;28;971;-68
2022/06/08 00:04:30;;;;;;;86.37;52.13;;;;;;;14.61;100.00;100837.91;172786;28;904;-68
2022/06/08 00:04:36;;;;;;;85.50;51.78;;;;;;;14.60;100.00;100833.59;172737;28;1042;-67
2022/06/08 00:04:42;;;;;;;84.70;51.53;;;;;;;14.60;100.00;100838.84;172777;28;1152;-68
2022/06/08 00:04:47;;;;;;;85.10;51.40;;;;;;;14.61;100.00;100839.69;172764;28;876;-68
2022/06/08 00:04:53;;;;;;;87.10;51.42;;;;;;;14.60;100.00;100844.09;172779;28;931;-68
2022/06/08 00:04:59;;;;;;;87.30;50.77;;;;;;;14.60;100.00;100844.09;172655;28;863;-68
2022/06/08 00:05:05;;;;;;;89.87;51.13;;;;;;;14.61;100.00;100845.78;172721;28;848;-68
2022/06/08 00:05:12;;;;;;;91.10;51.30;;;;;;;14.60;100.00;100841.47;172705;28;1112;-68
2022/06/08 00:05:17;;;;;;;90.70;51.38;;;;;;;14.61;100.00;100845.78;172685;28;1156;-68
2022/06/08 00:05:23;;;;;;;91.97;51.65;;;;;;;14.61;100.00;100835.28;172561;28;1539;-68
2022/06/08 00:05:28;;;;;;;94.22;52.33;;;;;;;14.61;100.00;100840.53;172731;28;880;-68
2022/06/08 00:05:34;;;;;;;94.37;52.30;;;;;;;14.61;100.00;100844.97;172683;28;1038;-68
2022/06/08 00:05:39;;;;;;;95.50;51.92;;;;;;;14.60;100.00;100841.47;172685;28;899;-68
2022/06/08 00:05:45;;;;;;;97.63;52.37;;;;;;;14.61;100.00;100835.28;172665;28;978;-68
2022/06/08 00:05:50;;;;;;;96.13;51.97;;;;;;;14.60;100.00;100838.84;172694;28;943;-68
2022/06/08 00:05:55;;;;;;;95.57;52.10;;;;;;;14.61;100.00;100842.34;172702;28;1054;-68
2022/06/08 00:06:01;;;;;;;94.67;52.43;;;;;;;14.61;100.00;100842.34;172709;28;1301;-68
2022/06/08 00:06:07;;;;;;;93.97;52.88;;;;;;;14.60;100.00;100841.47;172697;28;876;-68
2022/06/08 00:06:14;;;;;;;93.27;53.13;;;;;;;14.61;100.00;100839.69;172691;28;880;-68
2022/06/08 00:06:20;;;;;;;93.88;53.25;;;;;;;14.60;100.00;100841.47;172667;28;991;-68
2022/06/08 00:06:26;;;;;;;94.80;53.38;;;;;;;14.60;100.00;100838.84;171929;28;939;-68
2022/06/08 00:06:32;;;;;;;95.50;53.30;;;;;;;14.60;100.00;100838.84;172071;28;848;-68
2022/06/08 00:06:37;;;;;;;95.47;53.22;;;;;;;14.60;100.00;100838.84;171997;28;1038;-69
2022/06/08 00:06:43;;;;;;;94.57;53.00;;;;;;;14.59;100.00;100845.03;172016;28;932;-68
2022/06/08 00:06:51;;;;;;;92.40;52.78;;;;;;;14.59;100.00;100845.03;172003;28;979;-68
2022/06/08 00:06:56;;;;;;;90.80;52.44;;;;;;;14.58;100.00;100835.50;172257;28;961;-68
2022/06/08 00:07:02;;;;;;;90.97;52.60;;;;;;;14.57;100.00;100839.03;172707;28;844;-68
2022/06/08 00:07:08;;;;;;;89.27;52.40;;;;;;;14.59;100.00;100837.16;172702;28;974;-68
2022/06/08 00:07:14;;;;;;;88.32;51.92;;;;;;;14.58;100.00;100835.50;172673;28;899;-68
2022/06/08 00:07:19;;;;;;;88.10;51.45;;;;;;;14.59;100.00;100841.56;172672;28;935;-68
2022/06/08 00:07:25;;;;;;;87.20;51.20;;;;;;;14.59;100.00;100842.41;172698;28;923;-68
2022/06/08 00:07:30;;;;;;;87.50;51.00;;;;;;;14.58;100.00;100838.13;172672;28;911;-68
2022/06/08 00:07:36;;;;;;;88.63;51.07;;;;;;;14.60;100.00;100843.25;172652;28;1030;-68
2022/06/08 00:07:42;;;;;;;89.30;51.40;;;;;;;14.59;100.00;100837.16;171915;28;947;-68
2022/06/08 00:07:47;;;;;;;91.90;51.92;;;;;;;14.60;100.00;100838.00;171997;28;935;-68
2022/06/08 00:07:53;;;;;;;93.17;52.57;;;;;;;14.59;100.00;100833.69;172035;28;836;-68
2022/06/08 00:07:58;;;;;;;92.50;52.60;;;;;;;14.60;100.00;100833.59;172038;28;1034;-68
2022/06/08 00:08:04;;;;;;;90.80;52.20;;;;;;;14.60;100.00;100838.84;171994;28;1042;-68
2022/06/08 00:08:10;;;;;;;90.88;52.42;;;;;;;14.60;100.00;100836.22;172004;28;924;-68
2022/06/08 00:08:15;;;;;;;90.45;52.60;;;;;;;14.60;100.00;100838.84;172003;28;939;-68
2022/06/08 00:08:21;;;;;;;89.37;52.20;;;;;;;14.60;100.00;100833.59;171994;28;1099;-68
2022/06/08 00:08:26;;;;;;;89.70;51.55;;;;;;;14.60;100.00;100836.22;172624;28;911;-68
2022/06/08 00:08:32;;;;;;;90.93;51.77;;;;;;;14.59;100.00;100831.91;172711;28;1090;-68
2022/06/08 00:08:37;;;;;;;90.43;51.65;;;;;;;14.60;100.00;100838.84;171933;28;1471;-68
2022/06/08 00:08:43;;;;;;;90.10;51.20;;;;;;;14.59;100.00;100837.16;172022;28;991;-68
2022/06/08 00:08:48;;;;;;;89.45;51.05;;;;;;;14.59;100.00;100831.91;171997;28;1101;-68
2022/06/08 00:08:54;;;;;;;89.63;51.45;;;;;;;14.59;100.00;100842.41;171995;28;1320;-68
2022/06/08 00:08:59;;;;;;;88.57;51.50;;;;;;;14.59;100.00;100831.91;172022;28;1074;-68
2022/06/08 00:09:05;;;;;;;87.30;51.10;;;;;;;14.59;100.00;100834.53;172007;28;907;-68
2022/06/08 00:09:11;;;;;;;87.13;51.45;;;;;;;14.59;100.00;100837.16;172004;28;991;-68
2022/06/08 00:09:17;;;;;;;87.75;51.95;;;;;;;14.60;100.00;100836.22;171995;28;785;-68
2022/06/08 00:09:23;;;;;;;87.22;51.70;;;;;;;14.60;100.00;100841.47;172025;28;903;-68
2022/06/08 00:09:28;;;;;;;86.43;51.53;;;;;;;14.59;100.00;100837.16;171990;28;1469;-68
2022/06/08 00:09:34;;;;;;;87.47;51.93;;;;;;;14.60;100.00;100832.75;171989;28;1086;-68
2022/06/08 00:09:40;;;;;;;87.72;51.70;;;;;;;14.59;100.00;100837.16;172173;28;864;-68
2022/06/08 00:09:45;;;;;;;88.82;51.97;;;;;;;14.59;100.00;100831.91;172663;28;923;-68
2022/06/08 00:09:51;;;;;;;89.95;52.20;;;;;;;14.59;100.00;100831.06;172685;28;920;-68
2022/06/08 00:09:56;;;;;;;91.40;52.50;;;;;;;14.59;100.00;100841.56;172715;28;844;-68
2022/06/08 00:10:04;;;;;;;90.68;52.40;;;;;;;14.59;100.00;100839.78;172726;28;875;-68
2022/06/08 00:10:11;;;;;;;90.24;52.14;;;;;;;14.59;100.00;100834.53;172620;28;1960;-68
2022/06/08 00:10:16;;;;;;;89.92;51.40;;;;;;;14.58;100.00;100832.84;172631;28;1163;-68
2022/06/08 00:10:22;;;;;;;90.60;51.43;;;;;;;14.59;100.00;100841.56;172670;28;891;-68
2022/06/08 00:10:27;;;;;;;91.32;51.50;;;;;;;14.58;100.00;100835.50;172703;28;1006;-68
2022/06/08 00:10:33;;;;;;;92.47;51.83;;;;;;;14.58;100.00;100835.50;172730;28;991;-68
2022/06/08 00:10:38;;;;;;;93.03;52.10;;;;;;;14.58;100.00;100835.50;173365;28;919;-68
2022/06/08 00:10:45;;;;;;;94.20;52.25;;;;;;;14.58;100.00;100840.75;173356;28;918;-68
2022/06/08 00:10:50;;;;;;;92.97;51.92;;;;;;;14.58;100.00;100834.63;173348;28;1002;-68
2022/06/08 00:10:56;;;;;;;93.80;52.00;;;;;;;14.58;100.00;100834.63;173341;28;959;-68
2022/06/08 00:11:01;;;;;;;94.57;52.20;;;;;;;14.59;100.00;100836.31;173415;28;907;-68
2022/06/08 00:11:08;;;;;;;94.90;52.03;;;;;;;14.58;100.00;100840.75;173381;28;922;-68
2022/06/08 00:11:14;;;;;;;94.10;51.90;;;;;;;14.58;100.00;100838.13;173342;28;979;-68
2022/06/08 00:11:20;;;;;;;94.72;52.20;;;;;;;14.59;100.00;100837.16;173371;28;1160;-68
2022/06/08 00:11:26;;;;;;;91.96;51.70;;;;;;;14.58;100.00;100832.00;173372;28;1053;-68
2022/06/08 00:11:31;;;;;;;90.77;51.40;;;;;;;14.56;100.00;100837.34;173433;28;967;-68
2022/06/08 00:11:37;;;;;;;92.45;51.92;;;;;;;14.56;100.00;100832.09;173362;28;856;-68
2022/06/08 00:11:43;;;;;;;92.40;51.97;;;;;;;14.57;100.00;100832.94;173286;28;1032;-68
2022/06/08 00:11:48;;;;;;;92.10;52.15;;;;;;;14.57;100.00;100833.78;173266;28;1394;-68
2022/06/08 00:11:54;;;;;;;94.45;52.75;;;;;;;14.57;100.00;100833.78;173274;28;867;-68
2022/06/08 00:12:01;;;;;;;96.37;53.17;;;;;;;14.55;100.00;100833.88;173386;28;855;-68
2022/06/08 00:12:08;;;;;;;96.33;53.07;;;;;;;14.57;100.00;100833.78;173339;28;899;-68
2022/06/08 00:12:14;;;;;;;96.44;53.12;;;;;;;14.57;100.00;100833.78;173359;28;1006;-68
2022/06/08 00:12:20;;;;;;;98.20;53.47;;;;;;;14.55;100.00;100835.66;173330;28;1164;-68
2022/06/08 00:12:27;;;;;;;97.56;53.28;;;;;;;14.56;100.00;100834.72;173347;28;2188;-68
2022/06/08 00:12:32;;;;;;;97.70;53.53;;;;;;;14.56;100.00;100834.72;173363;28;1074;-68
2022/06/08 00:12:38;;;;;;;97.77;53.90;;;;;;;14.56;100.00;100837.34;173344;28;923;-68
2022/06/08 00:12:44;;;;;;;98.32;54.02;;;;;;;14.55;100.00;100830.41;173363;28;1399;-68
2022/06/08 00:12:49;;;;;;;98.27;53.70;;;;;;;14.55;100.00;100825.97;173325;28;1074;-68
2022/06/08 00:12:55;;;;;;;98.13;53.60;;;;;;;14.56;100.00;100832.09;173360;28;919;-68
2022/06/08 00:13:01;;;;;;;96.57;53.03;;;;;;;14.57;100.00;100832.94;173381;28;1223;-68
2022/06/08 00:13:07;;;;;;;96.80;52.78;;;;;;;14.56;100.00;100824.22;173347;28;974;-68
2022/06/08 00:13:12;;;;;;;97.80;52.80;;;;;;;14.56;100.00;100832.09;173274;28;1424;-68
2022/06/08 00:13:18;;;;;;;98.05;53.20;;;;;;;14.56;100.00;100839.97;173355;28;1038;-68
2022/06/08 00:13:24;;;;;;;98.67;53.27;;;;;;;14.55;100.00;100830.41;173370;28;898;-68
2022/06/08 00:13:30;;;;;;;100.10;53.47;;;;;;;14.55;100.00;100830.41;173417;28;1017;-68
2022/06/08 00:13:36;;;;;;;101.03;53.63;;;;;;;14.55;100.00;100830.41;173293;28;1382;-68
2022/06/08 00:13:42;;;;;;;100.68;53.40;;;;;;;14.54;100.00;100829.56;173364;28;962;-68
2022/06/08 00:13:48;;;;;;;99.40;52.93;;;;;;;14.54;100.00;100829.56;172881;28;973;-68
2022/06/08 00:13:53;;;;;;;100.30;53.10;;;;;;;14.55;100.00;100827.78;172695;28;903;-68
2022/06/08 00:13:59;;;;;;;99.63;52.88;;;;;;;14.54;100.00;100832.19;172727;28;860;-68
2022/06/08 00:14:04;;;;;;;98.43;52.47;;;;;;;14.54;100.00;100829.56;172670;28;883;-68
2022/06/08 00:14:12;;;;;;;97.15;52.17;;;;;;;14.52;100.00;100835.84;172679;28;1042;-68
2022/06/08 00:14:18;;;;;;;95.78;51.88;;;;;;;14.54;100.00;100833.94;172652;28;1148;-68
2022/06/08 00:14:23;;;;;;;95.13;51.55;;;;;;;14.52;100.00;100830.59;172672;28;939;-68
2022/06/08 00:14:29;;;;;;;94.85;51.35;;;;;;;14.51;100.00;100831.53;172628;28;914;-68
2022/06/08 00:14:35;;;;;;;94.13;51.23;;;;;;;14.51;100.00;100828.91;172739;28;860;-68
2022/06/08 00:14:41;;;;;;;95.63;51.85;;;;;;;14.52;100.00;100830.59;172720;28;933;-67
2022/06/08 00:14:47;;;;;;;97.68;52.42;;;;;;;14.52;100.00;100830.59;172633;28;1174;-68
2022/06/08 00:14:52;;;;;;;96.03;52.77;;;;;;;14.49;100.00;100825.50;172624;28;950;-68
2022/06/08 00:14:58;;;;;;;94.97;52.75;;;;;;;14.47;100.00;100828.22;172683;28;934;-68
2022/06/08 00:15:07;;;;;;;96.00;52.93;;;;;;;14.48;100.00;100831.72;172713;28;922;-68
2022/06/08 00:15:13;;;;;;;94.45;52.72;;;;;;;14.49;100.00;100828.13;172528;28;1598;-68
2022/06/08 00:15:19;;;;;;;92.70;52.20;;;;;;;14.49;100.00;100830.75;172723;28;938;-68
2022/06/08 00:15:26;;;;;;;91.78;51.63;;;;;;;14.49;100.00;100836.00;172671;28;1140;-68
2022/06/08 00:15:32;;;;;;;91.18;51.68;;;;;;;14.49;100.00;100831.63;171952;28;1228;-68
2022/06/08 00:15:37;;;;;;;90.32;51.78;;;;;;;14.50;100.00;100835.06;172013;28;914;-68
2022/06/08 00:15:43;;;;;;;90.03;51.83;;;;;;;14.49;100.00;100826.38;171987;28;930;-68
2022/06/08 00:15:49;;;;;;;89.98;51.90;;;;;;;14.50;100.00;100832.44;171969;28;1101;-68
2022/06/08 00:15:55;;;;;;;90.57;52.33;;;;;;;14.50;100.00;100822.78;172022;28;931;-68
2022/06/08 00:16:01;;;;;;;91.50;52.65;;;;;;;14.50;100.00;100832.44;172039;28;931;-68
2022/06/08 00:16:07;;;;;;;91.44;52.52;;;;;;;14.50;100.00;100824.56;172021;28;918;-68
2022/06/08 00:16:13;;;;;;;90.77;52.10;;;;;;;14.51;100.00;100828.91;172021;28;895;-68
2022/06/08 00:16:19;;;;;;;90.57;51.90;;;;;;;14.51;100.00;100834.16;172016;28;1119;-68
2022/06/08 00:16:25;;;;;;;90.55;51.72;;;;;;;14.50;100.00;100822.78;172008;28;973;-68
2022/06/08 00:16:31;;;;;;;89.70;51.40;;;;;;;14.50;100.00;100828.06;171308;28;914;-68
2022/06/08 00:16:36;;;;;;;90.00;51.28;;;;;;;14.51;100.00;100828.91;171333;28;887;-68
2022/06/08 00:16:42;;;;;;;89.70;51.33;;;;;;;14.50;100.00;100837.69;171318;28;1093;-68
2022/06/08 00:16:48;;;;;;;90.32;51.30;;;;;;;14.49;100.00;100825.50;171956;28;1085;-68
2022/06/08 00:16:53;;;;;;;89.20;51.23;;;;;;;14.49;100.00;100830.75;171987;28;852;-68
2022/06/08 00:16:59;;;;;;;88.22;50.90;;;;;;;14.49;100.00;100825.50;172012;28;871;-68
2022/06/08 00:17:05;;;;;;;88.00;51.07;;;;;;;14.50;100.00;100827.19;172038;28;1121;-68
2022/06/08 00:17:10;;;;;;;87.32;50.92;;;;;;;14.49;100.00;100823.75;171905;28;1436;-68
2022/06/08 00:17:15;;;;;;;88.05;51.20;;;;;;;14.49;100.00;100831.63;171956;28;959;-68
2022/06/08 00:17:21;;;;;;;87.93;51.13;;;;;;;14.50;100.00;100821.94;171922;28;892;-68
2022/06/08 00:17:27;;;;;;;89.60;51.88;;;;;;;14.49;100.00;100829.00;171990;28;910;-68
2022/06/08 00:17:33;;;;;;;88.93;51.92;;;;;;;14.48;100.00;100829.94;172638;28;1423;-68
2022/06/08 00:17:38;;;;;;;88.37;52.03;;;;;;;14.48;100.00;100829.09;171894;28;974;-68
2022/06/08 00:17:44;;;;;;;87.72;52.00;;;;;;;14.47;100.00;100822.16;172014;28;867;-68
2022/06/08 00:17:49;;;;;;;87.87;52.10;;;;;;;14.47;100.00;100827.41;172015;28;844;-68
2022/06/08 00:17:54;;;;;;;87.28;52.00;;;;;;;14.47;100.00;100825.59;171958;28;989;-68
2022/06/08 00:18:01;;;;;;;89.37;52.10;;;;;;;14.49;100.00;100825.50;172009;28;962;-68
2022/06/08 00:18:07;;;;;;;93.12;52.42;;;;;;;14.49;100.00;100825.50;171993;28;986;-68
2022/06/08 00:18:13;;;;;;;93.13;52.17;;;;;;;14.50;100.00;100825.41;171976;28;871;-67
2022/06/08 00:18:18;;;;;;;92.25;51.70;;;;;;;14.50;100.00;100827.19;171992;28;1002;-68
2022/06/08 00:18:24;;;;;;;92.40;51.47;;;;;;;14.50;100.00;100827.19;172012;28;1105;-68
2022/06/08 00:18:29;;;;;;;91.18;50.83;;;;;;;14.50;100.00;100824.56;172458;28;856;-68
2022/06/08 00:18:35;;;;;;;88.53;50.70;;;;;;;14.50;100.00;100824.56;172668;28;1041;-68
2022/06/08 00:18:42;;;;;;;87.13;50.63;;;;;;;14.50;100.00;100828.06;172619;28;1432;-68
2022/06/08 00:18:47;;;;;;;87.60;51.00;;;;;;;14.50;100.00;100824.56;171952;28;2806;-68
2022/06/08 00:18:53;;;;;;;86.10;50.80;;;;;;;14.51;100.00;100824.47;172015;28;1343;-68
2022/06/08 00:18:58;;;;;;;85.37;50.87;;;;;;;14.51;100.00;100829.72;171257;28;911;-68
2022/06/08 00:19:04;;;;;;;84.28;50.58;;;;;;;14.51;100.00;100818.41;171353;28;1005;-68
2022/06/08 00:19:09;;;;;;;82.07;49.97;;;;;;;14.51;100.00;100815.78;170965;28;931;-68
2022/06/08 00:19:14;;;;;;;81.65;50.03;;;;;;;14.51;100.00;100823.66;170669;29;928;-68
2022/06/08 00:19:20;;;;;;;81.43;50.00;;;;;;;14.51;100.00;100823.66;170663;29;868;-68
2022/06/08 00:19:25;;;;;;;80.80;49.92;;;;;;;14.52;100.00;100822.72;170645;29;1030;-68
2022/06/08 00:19:31;;;;;;;80.60;49.67;;;;;;;14.50;100.00;100822.78;170988;28;868;-68
2022/06/08 00:19:36;;;;;;;82.13;50.05;;;;;;;14.47;100.00;100822.97;171606;28;883;-68
2022/06/08 00:19:42;;;;;;;83.67;49.93;;;;;;;14.48;100.00;100826.44;172005;28;1212;-68
2022/06/08 00:19:47;;;;;;;84.17;49.80;;;;;;;14.47;100.00;100817.72;172003;28;855;-68
2022/06/08 00:19:54;;;;;;;84.05;49.97;;;;;;;14.50;100.00;100824.56;172000;28;997;-68
2022/06/08 00:19:59;;;;;;;84.32;50.22;;;;;;;14.50;100.00;100821.94;171893;28;935;-68
2022/06/08 00:20:08;;;;;;;84.60;50.30;;;;;;;14.51;100.00;100823.66;171978;28;1037;-68
2022/06/08 00:20:14;;;;;;;83.37;50.43;;;;;;;14.52;100.00;100822.72;172021;28;967;-68
2022/06/08 00:20:19;;;;;;;83.32;50.30;;;;;;;14.52;100.00;100820.94;171980;28;1041;-68
2022/06/08 00:20:25;;;;;;;83.57;50.13;;;;;;;14.53;100.00;100827.00;171912;28;1576;-68
2022/06/08 00:20:31;;;;;;;82.43;49.58;;;;;;;14.52;100.00;100820.94;172062;28;875;-68
2022/06/08 00:20:38;;;;;;;81.20;49.20;;;;;;;14.53;100.00;100833.13;172019;28;1038;-68
2022/06/08 00:20:43;;;;;;;80.16;49.06;;;;;;;14.52;100.00;100825.34;172050;28;914;-68
2022/06/08 00:20:49;;;;;;;78.40;48.67;;;;;;;14.53;100.00;100819.13;172655;28;958;-68
2022/06/08 00:20:55;;;;;;;78.45;48.75;;;;;;;14.54;100.00;100828.69;172748;28;969;-68
2022/06/08 00:21:00;;;;;;;79.78;49.60;;;;;;;14.53;100.00;100816.50;173423;28;1221;-68
2022/06/08 00:21:08;;;;;;;80.57;50.10;;;;;;;14.54;100.00;100823.44;173371;28;1125;-68
2022/06/08 00:21:14;;;;;;;82.40;50.65;;;;;;;14.55;100.00;100825.16;173346;28;1073;-68
2022/06/08 00:21:20;;;;;;;85.18;51.42;;;;;;;14.55;100.00;100819.91;173348;28;906;-68
2022/06/08 00:21:25;;;;;;;84.07;51.10;;;;;;;14.54;100.00;100829.56;173346;28;915;-68
2022/06/08 00:21:31;;;;;;;83.57;50.77;;;;;;;14.55;100.00;100819.91;173450;28;851;-68
2022/06/08 00:21:37;;;;;;;83.53;50.42;;;;;;;14.55;100.00;100819.91;173352;28;1243;-68
2022/06/08 00:21:43;;;;;;;82.80;50.13;;;;;;;14.55;100.00;100825.16;172609;28;986;-68
2022/06/08 00:21:48;;;;;;;81.70;50.17;;;;;;;14.54;100.00;100818.19;172685;28;954;-68
2022/06/08 00:21:54;;;;;;;82.03;50.43;;;;;;;14.55;100.00;100825.16;172610;28;895;-68
2022/06/08 00:22:00;;;;;;;82.00;50.40;;;;;;;14.54;100.00;100820.81;172649;28;1109;-68
2022/06/08 00:22:05;;;;;;;80.37;50.47;;;;;;;14.53;100.00;100822.63;172655;28;1108;-68
2022/06/08 00:22:11;;;;;;;79.70;50.47;;;;;;;14.53;100.00;100821.75;172611;28;910;-69
2022/06/08 00:22:17;;;;;;;80.20;50.10;;;;;;;14.54;100.00;100823.44;172675;28;899;-68
2022/06/08 00:22:22;;;;;;;81.15;50.05;;;;;;;14.54;100.00;100821.69;172633;28;934;-67
2022/06/08 00:22:28;;;;;;;81.97;50.17;;;;;;;14.54;100.00;100816.44;172683;28;911;-67
2022/06/08 00:22:34;;;;;;;82.60;50.17;;;;;;;14.55;100.00;100819.91;172731;28;1074;-67
2022/06/08 00:22:41;;;;;;;84.25;50.35;;;;;;;14.55;100.00;100820.72;172670;28;1085;-67
2022/06/08 00:22:46;;;;;;;83.66;50.14;;;;;;;14.56;100.00;100821.59;172659;28;1002;-67
2022/06/08 00:22:53;;;;;;;82.67;49.77;;;;;;;14.56;100.00;100821.59;172664;28;832;-67
2022/06/08 00:22:59;;;;;;;82.22;49.76;;;;;;;14.57;100.00;100823.28;172662;28;1000;-67
2022/06/08 00:23:06;;;;;;;82.80;50.05;;;;;;;14.56;100.00;100818.97;172718;28;1049;-67
2022/06/08 00:23:11;;;;;;;82.46;50.12;;;;;;;14.56;100.00;100813.72;172661;28;962;-67
2022/06/08 00:23:17;;;;;;;83.20;50.27;;;;;;;14.57;100.00;100823.28;172665;28;938;-67
2022/06/08 00:23:23;;;;;;;83.95;50.42;;;;;;;14.57;100.00;100818.03;172660;28;914;-67
2022/06/08 00:23:28;;;;;;;84.13;50.53;;;;;;;14.57;100.00;100818.03;172691;28;919;-67
2022/06/08 00:23:34;;;;;;;84.40;50.10;;;;;;;14.57;100.00;100815.38;172724;28;1038;-67
2022/06/08 00:23:42;;;;;;;84.88;49.96;;;;;;;14.57;100.00;100823.28;172664;28;1148;-67
2022/06/08 00:23:47;;;;;;;84.94;50.04;;;;;;;14.58;100.00;100819.72;171908;28;1184;-67
2022/06/08 00:23:53;;;;;;;82.43;49.93;;;;;;;14.58;100.00;100819.72;172291;28;883;-67
2022/06/08 00:23:58;;;;;;;81.07;49.67;;;;;;;14.58;100.00;100816.25;172691;28;870;-67
2022/06/08 00:24:04;;;;;;;79.77;49.50;;;;;;;14.54;100.00;100815.56;172719;28;855;-67
2022/06/08 00:24:10;;;;;;;77.35;49.00;;;;;;;14.55;100.00;100817.28;171894;28;1060;-67
2022/06/08 00:24:15;;;;;;;78.65;48.85;;;;;;;14.56;100.00;100818.97;172007;28;1245;-68
2022/06/08 00:24:21;;;;;;;80.05;48.83;;;;;;;14.55;100.00;100814.66;171963;28;934;-67
2022/06/08 00:24:27;;;;;;;80.60;49.00;;;;;;;14.55;100.00;100815.47;171990;28;855;-67
2022/06/08 00:24:33;;;;;;;80.40;48.78;;;;;;;14.57;100.00;100822.44;172034;28;937;-67
2022/06/08 00:24:39;;;;;;;80.93;48.90;;;;;;;14.56;100.00;100824.22;171766;28;1441;-68
2022/06/08 00:24:45;;;;;;;79.30;49.10;;;;;;;14.57;100.00;100822.44;172019;28;1097;-67
2022/06/08 00:24:51;;;;;;;78.33;49.07;;;;;;;14.57;100.00;100818.03;172020;28;1339;-67
2022/06/08 00:24:56;;;;;;;77.95;48.83;;;;;;;14.58;100.00;100818.88;171967;28;977;-67
2022/06/08 00:25:04;;;;;;;78.07;49.00;;;;;;;14.57;100.00;100818.03;172059;28;910;-67
2022/06/08 00:25:12;;;;;;;77.75;49.08;;;;;;;14.59;100.00;100824.03;171995;28;1034;-67
2022/06/08 00:25:17;;;;;;;77.83;49.23;;;;;;;14.57;100.00;100823.28;172023;28;967;-67
2022/06/08 00:25:23;;;;;;;77.72;49.58;;;;;;;14.58;100.00;100817.09;172035;28;934;-67
2022/06/08 00:25:28;;;;;;;78.57;49.87;;;;;;;14.58;100.00;100813.63;172017;28;915;-66
2022/06/08 00:25:34;;;;;;;76.70;49.33;;;;;;;14.57;100.00;100814.56;172056;28;1098;-67
2022/06/08 00:25:40;;;;;;;78.18;49.44;;;;;;;14.57;100.00;100825.91;172023;28;961;-67
2022/06/08 00:25:46;;;;;;;77.88;49.33;;;;;;;14.58;100.00;100813.63;172312;28;1085;-67
2022/06/08 00:25:52;;;;;;;77.30;48.63;;;;;;;14.57;100.00;100812.75;172697;28;927;-67
2022/06/08 00:25:57;;;;;;;76.27;48.40;;;;;;;14.58;100.00;100818.88;171928;28;1584;-67
2022/06/08 00:26:04;;;;;;;76.45;48.58;;;;;;;14.58;100.00;100817.09;172040;28;923;-67
2022/06/08 00:26:09;;;;;;;75.47;48.75;;;;;;;14.60;100.00;100816.97;172509;28;875;-67
2022/06/08 00:26:15;;;;;;;75.00;48.55;;;;;;;14.59;100.00;100816.16;172645;28;974;-67
2022/06/08 00:26:24;;;;;;;74.50;48.40;;;;;;;14.59;100.00;100825.81;172654;28;903;-67
2022/06/08 00:26:29;;;;;;;74.83;48.30;;;;;;;14.55;100.00;100822.53;172707;28;966;-67
2022/06/08 00:26:36;;;;;;;75.25;48.25;;;;;;;14.54;100.00;100823.44;172707;28;1104;-67
2022/06/08 00:26:42;;;;;;;76.20;48.43;;;;;;;14.54;100.00;100818.19;172698;28;1093;-67
2022/06/08 00:26:47;;;;;;;75.40;48.13;;;;;;;14.55;100.00;100814.66;172691;28;1087;-67
2022/06/08 00:26:53;;;;;;;74.75;48.03;;;;;;;14.55;100.00;100822.53;172683;28;914;-67
2022/06/08 00:27:00;;;;;;;73.70;48.03;;;;;;;14.56;100.00;100821.59;171919;28;1380;-68
2022/06/08 00:27:06;;;;;;;72.62;48.00;;;;;;;14.58;100.00;100822.34;172071;28;950;-68
2022/06/08 00:27:12;;;;;;;72.25;48.00;;;;;;;14.58;100.00;100818.88;171986;28;880;-67
2022/06/08 00:27:17;;;;;;;72.90;48.42;;;;;;;14.58;100.00;100819.72;171993;28;903;-67
2022/06/08 00:27:23;;;;;;;74.07;48.13;;;;;;;14.58;100.00;100819.72;171293;28;1030;-67
2022/06/08 00:27:28;;;;;;;74.57;48.00;;;;;;;14.58;100.00;100822.34;171087;28;1459;-67
2022/06/08 00:27:34;;;;;;;75.10;47.90;;;;;;;14.59;100.00;100813.53;171754;28;1436;-67
2022/06/08 00:27:41;;;;;;;74.80;47.87;;;;;;;14.58;100.00;100822.34;172006;28;907;-67
2022/06/08 00:27:46;;;;;;;75.52;47.90;;;;;;;14.59;100.00;100821.41;172001;28;914;-67
2022/06/08 00:27:52;;;;;;;75.53;48.33;;;;;;;14.58;100.00;100819.72;172009;28;859;-67
2022/06/08 00:27:57;;;;;;;75.10;48.38;;;;;;;14.59;100.00;100817.94;172504;28;1026;-67
2022/06/08 00:28:03;;;;;;;75.00;48.28;;;;;;;14.57;100.00;100812.75;172694;28;1094;-67
2022/06/08 00:28:09;;;;;;;74.88;48.13;;;;;;;14.57;100.00;100815.38;172687;28;982;-67
2022/06/08 00:28:15;;;;;;;74.80;48.13;;;;;;;14.55;100.00;100815.47;172596;28;1077;-68
2022/06/08 00:28:21;;;;;;;75.12;48.08;;;;;;;14.58;100.00;100816.25;172611;28;990;-68
2022/06/08 00:28:26;;;;;;;75.83;48.20;;;;;;;14.58;100.00;100819.72;172667;28;836;-67
2022/06/08 00:28:33;;;;;;;76.65;48.08;;;;;;;14.58;100.00;100818.88;172664;28;907;-67
2022/06/08 00:28:39;;;;;;;78.13;48.20;;;;;;;14.59;100.00;100817.94;172677;28;1026;-68
2022/06/08 00:28:44;;;;;;;77.85;47.97;;;;;;;14.60;100.00;100823.09;172626;28;1034;-68